sensor_id;sensor_type;location;lat;lon;timestamp;pressure;altitude;pressure_sealevel;temperature;humidity
48527;BME280;34317;51.660;5.824;2023-01-26T00:01:15;102519.56;;;3.27;58.18
48527;BME280;34317;51.660;5.824;2023-01-26T00:03:43;102512.59;;;3.26;58.33
48527;BME280;34317;51.660;5.824;2023-01-26T00:06:13;102508.19;;;3.23;58.33
48527;BME280;34317;51.660;5.824;2023-01-26T00:08:52;102502.94;;;3.23;58.55
48527;BME280;34317;51.660;5.824;2023-01-26T00:11:21;102492.47;;;3.23;58.57
48527;BME280;34317;51.660;5.824;2023-01-26T00:13:57;102495.97;;;3.22;58.62
48527;BME280;34317;51.660;5.824;2023-01-26T00:16:26;102492.47;;;3.20;58.55
48527;BME280;34317;51.660;5.824;2023-01-26T00:18:53;102485.44;;;3.19;58.42
48527;BME280;34317;51.660;5.824;2023-01-26T00:21:22;102489.81;;;3.19;58.42
48527;BME280;34317;51.660;5.824;2023-01-26T00:23:51;102480.22;;;3.19;58.63
48527;BME280;34317;51.660;5.824;2023-01-26T00:26:20;102478.44;;;3.18;58.54
48527;BME280;34317;51.660;5.824;2023-01-26T00:28:49;102482.81;;;3.18;58.49
48527;BME280;34317;51.660;5.824;2023-01-26T00:31:25;102478.44;;;3.18;58.64
48527;BME280;34317;51.660;5.824;2023-01-26T00:33:53;102473.19;;;3.18;58.53
48527;BME280;34317;51.660;5.824;2023-01-26T00:36:21;102475.81;;;3.18;58.51
48527;BME280;34317;51.660;5.824;2023-01-26T00:38:48;102464.50;;;3.19;58.84
48527;BME280;34317;51.660;5.824;2023-01-26T00:41:15;102461.03;;;3.20;58.68
48527;BME280;34317;51.660;5.824;2023-01-26T00:44:01;102462.78;;;3.21;58.66
48527;BME280;34317;51.660;5.824;2023-01-26T00:46:28;102464.50;;;3.19;58.67
48527;BME280;34317;51.660;5.824;2023-01-26T00:48:56;102464.50;;;3.19;58.83
48527;BME280;34317;51.660;5.824;2023-01-26T00:51:23;102462.78;;;3.21;58.86
48527;BME280;34317;51.660;5.824;2023-01-26T00:53:50;102454.06;;;3.22;58.81
48527;BME280;34317;51.660;5.824;2023-01-26T00:56:18;102447.06;;;3.21;58.83
48527;BME280;34317;51.660;5.824;2023-01-26T00:58:45;102450.56;;;3.20;58.84
48527;BME280;34317;51.660;5.824;2023-01-26T01:01:12;102443.59;;;3.22;58.79
48527;BME280;34317;51.660;5.824;2023-01-26T01:03:41;102440.09;;;3.23;58.77
48527;BME280;34317;51.660;5.824;2023-01-26T01:06:08;102438.38;;;3.22;58.87
48527;BME280;34317;51.660;5.824;2023-01-26T01:08:36;102441.84;;;3.23;59.30
48527;BME280;34317;51.660;5.824;2023-01-26T01:11:08;102430.50;;;3.21;58.94
48527;BME280;34317;51.660;5.824;2023-01-26T01:13:36;102433.09;;;3.19;58.85
48527;BME280;34317;51.660;5.824;2023-01-26T01:16:08;102431.38;;;3.21;58.99
48527;BME280;34317;51.660;5.824;2023-01-26T01:18:35;102431.38;;;3.21;58.80
48527;BME280;34317;51.660;5.824;2023-01-26T01:21:11;102430.47;;;3.19;58.86
48527;BME280;34317;51.660;5.824;2023-01-26T01:23:39;102430.44;;;3.18;58.94
48527;BME280;34317;51.660;5.824;2023-01-26T01:26:09;102431.31;;;3.18;58.92
48527;BME280;34317;51.660;5.824;2023-01-26T01:28:37;102421.75;;;3.19;59.09
48527;BME280;34317;51.660;5.824;2023-01-26T01:31:10;102420.88;;;3.21;59.17
48527;BME280;34317;51.660;5.824;2023-01-26T01:33:38;102415.66;;;3.21;58.91
48527;BME280;34317;51.660;5.824;2023-01-26T01:36:08;102420.88;;;3.21;59.07
48527;BME280;34317;51.660;5.824;2023-01-26T01:38:36;102428.75;;;3.21;59.03
48527;BME280;34317;51.660;5.824;2023-01-26T01:41:03;102431.38;;;3.21;58.89
48527;BME280;34317;51.660;5.824;2023-01-26T01:43:30;102437.47;;;3.22;59.18
48527;BME280;34317;51.660;5.824;2023-01-26T01:45:59;102426.16;;;3.23;59.06
48527;BME280;34317;51.660;5.824;2023-01-26T01:51:15;102429.63;;;3.23;59.20
48527;BME280;34317;51.660;5.824;2023-01-26T01:53:46;102427.03;;;3.23;59.06
48527;BME280;34317;51.660;5.824;2023-01-26T01:56:18;102427.91;;;3.25;59.35
48527;BME280;34317;51.660;5.824;2023-01-26T01:58:50;102433.19;;;3.28;59.07
48527;BME280;34317;51.660;5.824;2023-01-26T02:01:19;102424.47;;;3.29;59.20
48527;BME280;34317;51.660;5.824;2023-01-26T02:03:49;102416.63;;;3.31;59.20
48527;BME280;34317;51.660;5.824;2023-01-26T02:06:25;102422.75;;;3.31;59.12
48527;BME280;34317;51.660;5.824;2023-01-26T02:08:55;102417.53;;;3.31;59.13
48527;BME280;34317;51.660;5.824;2023-01-26T02:11:31;102414.03;;;3.33;59.16
48527;BME280;34317;51.660;5.824;2023-01-26T02:14:03;102419.28;;;3.34;59.03
48527;BME280;34317;51.660;5.824;2023-01-26T02:16:32;102414.06;;;3.36;59.24
48527;BME280;34317;51.660;5.824;2023-01-26T02:19:01;102412.34;;;3.38;59.24
48527;BME280;34317;51.660;5.824;2023-01-26T02:21:28;102410.63;;;3.40;59.38
48527;BME280;34317;51.660;5.824;2023-01-26T02:24:22;102412.34;;;3.41;59.22
48527;BME280;34317;51.660;5.824;2023-01-26T02:26:51;102408.88;;;3.42;59.16
48527;BME280;34317;51.660;5.824;2023-01-26T02:29:19;102413.25;;;3.41;59.07
48527;BME280;34317;51.660;5.824;2023-01-26T02:31:47;102408.88;;;3.42;59.10
48527;BME280;34317;51.660;5.824;2023-01-26T02:34:14;102405.41;;;3.43;59.17
48527;BME280;34317;51.660;5.824;2023-01-26T02:36:41;102401.91;;;3.44;59.29
48527;BME280;34317;51.660;5.824;2023-01-26T02:39:29;102398.41;;;3.42;59.42
48527;BME280;34317;51.660;5.824;2023-01-26T02:42:00;102395.81;;;3.43;59.27
48527;BME280;34317;51.660;5.824;2023-01-26T02:44:46;102401.91;;;3.44;59.30
48527;BME280;34317;51.660;5.824;2023-01-26T02:47:17;102399.28;;;3.42;59.10
48527;BME280;34317;51.660;5.824;2023-01-26T02:49:45;102389.66;;;3.40;59.04
48527;BME280;34317;51.660;5.824;2023-01-26T02:52:16;102382.66;;;3.39;59.16
48527;BME280;34317;51.660;5.824;2023-01-26T02:54:46;102389.66;;;3.40;59.25
48527;BME280;34317;51.660;5.824;2023-01-26T02:57:32;102387.03;;;3.40;59.37
48527;BME280;34317;51.660;5.824;2023-01-26T03:00:03;102391.41;;;3.41;59.28
48527;BME280;34317;51.660;5.824;2023-01-26T03:02:31;102391.44;;;3.44;59.64
48527;BME280;34317;51.660;5.824;2023-01-26T03:04:58;102389.72;;;3.46;59.57
48527;BME280;34317;51.660;5.824;2023-01-26T03:07:26;102387.97;;;3.48;59.33
48527;BME280;34317;51.660;5.824;2023-01-26T03:09:53;102390.59;;;3.48;59.23
48527;BME280;34317;51.660;5.824;2023-01-26T03:12:20;102381.00;;;3.47;59.51
48527;BME280;34317;51.660;5.824;2023-01-26T03:14:47;102387.09;;;3.46;59.27
48527;BME280;34317;51.660;5.824;2023-01-26T03:17:35;102378.38;;;3.45;59.40
48527;BME280;34317;51.660;5.824;2023-01-26T03:20:04;102386.22;;;3.45;59.44
48527;BME280;34317;51.660;5.824;2023-01-26T03:22:51;102383.63;;;3.47;59.25
48527;BME280;34317;51.660;5.824;2023-01-26T03:25:37;102381.84;;;3.46;59.54
48527;BME280;34317;51.660;5.824;2023-01-26T03:28:42;102377.47;;;3.42;59.39
48527;BME280;34317;51.660;5.824;2023-01-26T03:31:10;102372.22;;;3.42;59.49
48527;BME280;34317;51.660;5.824;2023-01-26T03:33:37;102379.22;;;3.43;59.63
48527;BME280;34317;51.660;5.824;2023-01-26T03:36:05;102377.50;;;3.45;59.63
48527;BME280;34317;51.660;5.824;2023-01-26T03:38:32;102372.28;;;3.48;59.45
48527;BME280;34317;51.660;5.824;2023-01-26T03:40:59;102379.28;;;3.52;59.55
48527;BME280;34317;51.660;5.824;2023-01-26T03:43:45;102377.56;;;3.54;59.56
48527;BME280;34317;51.660;5.824;2023-01-26T03:46:31;102381.09;;;3.56;59.55
48527;BME280;34317;51.660;5.824;2023-01-26T03:49:18;102377.59;;;3.57;59.42
48527;BME280;34317;51.660;5.824;2023-01-26T03:52:06;102382.84;;;3.57;59.42
48527;BME280;34317;51.660;5.824;2023-01-26T03:54:51;102377.59;;;3.57;59.48
48527;BME280;34317;51.660;5.824;2023-01-26T03:57:37;102376.72;;;3.57;59.37
48527;BME280;34317;51.660;5.824;2023-01-26T04:00:05;102377.56;;;3.54;59.56
48527;BME280;34317;51.660;5.824;2023-01-26T04:02:38;102369.69;;;3.54;59.41
48527;BME280;34317;51.660;5.824;2023-01-26T04:05:24;102377.56;;;3.54;59.51
48527;BME280;34317;51.660;5.824;2023-01-26T04:08:10;102370.63;;;3.56;59.66
48527;BME280;34317;51.660;5.824;2023-01-26T04:10:58;102363.66;;;3.58;59.50
48527;BME280;34317;51.660;5.824;2023-01-26T04:13:25;102373.25;;;3.61;59.46
48527;BME280;34317;51.660;5.824;2023-01-26T04:16:32;102372.41;;;3.63;59.50
48527;BME280;34317;51.660;5.824;2023-01-26T04:19:19;102377.63;;;3.63;59.68
48527;BME280;34317;51.660;5.824;2023-01-26T04:22:06;102372.44;;;3.66;59.58
48527;BME280;34317;51.660;5.824;2023-01-26T04:24:35;102374.19;;;3.67;59.38
48527;BME280;34317;51.660;5.824;2023-01-26T04:27:03;102374.22;;;3.70;59.54
48527;BME280;34317;51.660;5.824;2023-01-26T04:29:35;102375.97;;;3.72;59.69
48527;BME280;34317;51.660;5.824;2023-01-26T04:32:02;102375.97;;;3.75;59.82
48527;BME280;34317;51.660;5.824;2023-01-26T04:34:31;102374.25;;;3.77;59.70
48527;BME280;34317;51.660;5.824;2023-01-26T04:36:59;102369.91;;;3.77;59.59
48527;BME280;34317;51.660;5.824;2023-01-26T04:39:35;102381.28;;;3.79;59.79
48527;BME280;34317;51.660;5.824;2023-01-26T04:42:04;102373.44;;;3.81;59.74
48527;BME280;34317;51.660;5.824;2023-01-26T04:44:31;102374.31;;;3.83;59.81
48527;BME280;34317;51.660;5.824;2023-01-26T04:46:58;102372.59;;;3.85;59.72
48527;BME280;34317;51.660;5.824;2023-01-26T04:49:27;102377.81;;;3.88;59.91
48527;BME280;34317;51.660;5.824;2023-01-26T04:51:54;102376.13;;;3.90;59.68
48527;BME280;34317;51.660;5.824;2023-01-26T04:54:22;102376.13;;;3.93;59.77
48527;BME280;34317;51.660;5.824;2023-01-26T04:56:49;102378.75;;;3.95;59.80
48527;BME280;34317;51.660;5.824;2023-01-26T04:59:17;102372.66;;;3.97;59.81
48527;BME280;34317;51.660;5.824;2023-01-26T05:01:45;102376.16;;;3.99;59.69
48527;BME280;34317;51.660;5.824;2023-01-26T05:04:12;102365.72;;;4.02;59.86
48527;BME280;34317;51.660;5.824;2023-01-26T05:06:43;102368.34;;;4.04;59.74
48527;BME280;34317;51.660;5.824;2023-01-26T05:09:10;102361.38;;;4.06;59.82
48527;BME280;34317;51.660;5.824;2023-01-26T05:11:39;102368.38;;;4.08;59.61
48527;BME280;34317;51.660;5.824;2023-01-26T05:14:25;102361.41;;;4.09;59.88
48527;BME280;34317;51.660;5.824;2023-01-26T05:17:03;102350.00;;;4.08;59.82
48527;BME280;34317;51.660;5.824;2023-01-26T05:20:06;102350.00;;;4.08;59.75
48527;BME280;34317;51.660;5.824;2023-01-26T05:22:53;102352.66;;;4.10;59.67
48527;BME280;34317;51.660;5.824;2023-01-26T05:25:39;102355.28;;;4.12;59.94
48527;BME280;34317;51.660;5.824;2023-01-26T05:28:09;102362.28;;;4.13;59.65
48527;BME280;34317;51.660;5.824;2023-01-26T05:30:36;102359.69;;;4.13;59.87
48527;BME280;34317;51.660;5.824;2023-01-26T05:33:06;102358.78;;;4.14;59.83
48527;BME280;34317;51.660;5.824;2023-01-26T05:35:34;102362.28;;;4.16;59.85
48527;BME280;34317;51.660;5.824;2023-01-26T05:38:03;102362.28;;;4.16;59.96
48527;BME280;34317;51.660;5.824;2023-01-26T05:40:32;102362.28;;;4.16;59.97
48527;BME280;34317;51.660;5.824;2023-01-26T05:42:59;102367.53;;;4.16;59.92
48527;BME280;34317;51.660;5.824;2023-01-26T05:45:45;102358.81;;;4.17;59.85
48527;BME280;34317;51.660;5.824;2023-01-26T05:48:13;102364.94;;;4.19;59.73
48527;BME280;34317;51.660;5.824;2023-01-26T05:50:41;102366.69;;;4.20;59.76
48527;BME280;34317;51.660;5.824;2023-01-26T05:53:16;102368.44;;;4.21;59.75
48527;BME280;34317;51.660;5.824;2023-01-26T05:55:44;102362.31;;;4.22;59.82
48527;BME280;34317;51.660;5.824;2023-01-26T05:58:12;102364.09;;;4.23;59.93
48527;BME280;34317;51.660;5.824;2023-01-26T06:00:39;102362.34;;;4.25;60.11
48527;BME280;34317;51.660;5.824;2023-01-26T06:03:13;102364.13;;;4.26;59.90
48527;BME280;34317;51.660;5.824;2023-01-26T06:05:40;102367.63;;;4.28;59.70
48527;BME280;34317;51.660;5.824;2023-01-26T06:08:16;102371.09;;;4.27;59.93
48527;BME280;34317;51.660;5.824;2023-01-26T06:10:57;102371.09;;;4.27;59.75
48527;BME280;34317;51.660;5.824;2023-01-26T06:13:38;102372.88;;;4.28;59.88
48527;BME280;34317;51.660;5.824;2023-01-26T06:16:16;102371.13;;;4.30;59.78
48527;BME280;34317;51.660;5.824;2023-01-26T06:18:47;102371.13;;;4.30;59.71
48527;BME280;34317;51.660;5.824;2023-01-26T06:21:15;102371.13;;;4.30;59.89
48527;BME280;34317;51.660;5.824;2023-01-26T06:23:43;102376.38;;;4.30;59.75
48527;BME280;34317;51.660;5.824;2023-01-26T06:26:11;102370.28;;;4.29;59.81
48527;BME280;34317;51.660;5.824;2023-01-26T06:28:39;102372.88;;;4.31;59.84
48527;BME280;34317;51.660;5.824;2023-01-26T06:31:07;102367.63;;;4.31;60.03
48527;BME280;34317;51.660;5.824;2023-01-26T06:33:36;102372.88;;;4.31;59.91
48527;BME280;34317;51.660;5.824;2023-01-26T06:36:08;102378.13;;;4.31;59.67
48527;BME280;34317;51.660;5.824;2023-01-26T06:38:44;102376.38;;;4.30;59.79
48527;BME280;34317;51.660;5.824;2023-01-26T06:41:11;102384.25;;;4.30;59.57
48527;BME280;34317;51.660;5.824;2023-01-26T06:43:39;102378.13;;;4.31;59.90
48527;BME280;34317;51.660;5.824;2023-01-26T06:46:06;102378.13;;;4.31;59.98
48527;BME280;34317;51.660;5.824;2023-01-26T06:48:34;102385.13;;;4.32;60.00
48527;BME280;34317;51.660;5.824;2023-01-26T06:51:20;102386.88;;;4.33;59.93
48527;BME280;34317;51.660;5.824;2023-01-26T06:53:56;102380.78;;;4.36;59.81
48527;BME280;34317;51.660;5.824;2023-01-26T06:56:31;102381.66;;;4.36;60.02
48527;BME280;34317;51.660;5.824;2023-01-26T06:59:19;102385.16;;;4.35;60.01
48527;BME280;34317;51.660;5.824;2023-01-26T07:02:14;102388.66;;;4.37;59.85
48527;BME280;34317;51.660;5.824;2023-01-26T07:04:42;102388.66;;;4.37;59.76
48527;BME280;34317;51.660;5.824;2023-01-26T07:07:09;102388.66;;;4.37;59.78
48527;BME280;34317;51.660;5.824;2023-01-26T07:09:36;102387.75;;;4.37;60.16
48527;BME280;34317;51.660;5.824;2023-01-26T07:12:04;102384.28;;;4.36;59.81
48527;BME280;34317;51.660;5.824;2023-01-26T07:14:31;102379.91;;;4.35;59.71
48527;BME280;34317;51.660;5.824;2023-01-26T07:16:59;102386.91;;;4.36;59.95
48527;BME280;34317;51.660;5.824;2023-01-26T07:19:26;102386.94;;;4.39;60.26
48527;BME280;34317;51.660;5.824;2023-01-26T07:21:56;102393.91;;;4.40;59.96
48527;BME280;34317;51.660;5.824;2023-01-26T07:24:23;102395.69;;;4.41;60.19
48527;BME280;34317;51.660;5.824;2023-01-26T07:26:51;102389.56;;;4.41;59.89
48527;BME280;34317;51.660;5.824;2023-01-26T07:29:18;102400.06;;;4.41;60.14
48527;BME280;34317;51.660;5.824;2023-01-26T07:31:45;102406.16;;;4.41;60.11
48527;BME280;34317;51.660;5.824;2023-01-26T07:34:12;102400.91;;;4.41;60.13
48527;BME280;34317;51.660;5.824;2023-01-26T07:36:39;102406.16;;;4.41;59.94
48527;BME280;34317;51.660;5.824;2023-01-26T07:39:06;102406.16;;;4.41;59.79
48527;BME280;34317;51.660;5.824;2023-01-26T07:41:34;102403.53;;;4.41;59.55
48527;BME280;34317;51.660;5.824;2023-01-26T07:44:12;102406.16;;;4.41;59.87
48527;BME280;34317;51.660;5.824;2023-01-26T07:46:39;102410.53;;;4.42;59.83
48527;BME280;34317;51.660;5.824;2023-01-26T07:49:07;102414.94;;;4.43;60.12
48527;BME280;34317;51.660;5.824;2023-01-26T07:51:34;102409.69;;;4.43;59.74
48527;BME280;34317;51.660;5.824;2023-01-26T07:54:01;102411.41;;;4.44;60.00
48527;BME280;34317;51.660;5.824;2023-01-26T07:56:28;102404.47;;;4.46;60.26
48527;BME280;34317;51.660;5.824;2023-01-26T07:58:56;102412.31;;;4.49;59.97
48527;BME280;34317;51.660;5.824;2023-01-26T08:01:23;102417.59;;;4.51;60.11
48527;BME280;34317;51.660;5.824;2023-01-26T08:03:51;102417.59;;;4.53;59.85
48527;BME280;34317;51.660;5.824;2023-01-26T08:06:20;102418.47;;;4.55;60.10
48527;BME280;34317;51.660;5.824;2023-01-26T08:08:48;102413.25;;;4.55;60.14
48527;BME280;34317;51.660;5.824;2023-01-26T08:11:19;102418.47;;;4.55;59.87
48527;BME280;34317;51.660;5.824;2023-01-26T08:13:49;102416.75;;;4.57;59.81
48527;BME280;34317;51.660;5.824;2023-01-26T08:16:16;102417.63;;;4.57;60.10
48527;BME280;34317;51.660;5.824;2023-01-26T08:18:44;102416.78;;;4.60;59.83
48527;BME280;34317;51.660;5.824;2023-01-26T08:21:14;102421.13;;;4.61;59.93
48527;BME280;34317;51.660;5.824;2023-01-26T08:23:41;102422.88;;;4.60;59.85
48527;BME280;34317;51.660;5.824;2023-01-26T08:26:11;102418.50;;;4.61;59.73
48527;BME280;34317;51.660;5.824;2023-01-26T08:28:40;102429.00;;;4.61;59.81
48527;BME280;34317;51.660;5.824;2023-01-26T08:31:12;102423.75;;;4.61;59.93
48527;BME280;34317;51.660;5.824;2023-01-26T08:33:41;102425.53;;;4.62;60.02
48527;BME280;34317;51.660;5.824;2023-01-26T08:36:12;102427.28;;;4.60;59.90
48527;BME280;34317;51.660;5.824;2023-01-26T08:38:40;102429.00;;;4.61;59.82
48527;BME280;34317;51.660;5.824;2023-01-26T08:41:08;102425.53;;;4.62;60.17
48527;BME280;34317;51.660;5.824;2023-01-26T08:43:36;102435.13;;;4.63;60.14
48527;BME280;34317;51.660;5.824;2023-01-26T08:46:04;102434.28;;;4.64;60.11
48527;BME280;34317;51.660;5.824;2023-01-26T08:48:31;102432.50;;;4.63;59.82
48527;BME280;34317;51.660;5.824;2023-01-26T08:51:00;102429.88;;;4.63;59.96
48527;BME280;34317;51.660;5.824;2023-01-26T08:53:32;102437.78;;;4.66;59.96
48527;BME280;34317;51.660;5.824;2023-01-26T08:56:03;102432.53;;;4.66;59.77
48527;BME280;34317;51.660;5.824;2023-01-26T08:58:32;102442.16;;;4.68;60.15
48527;BME280;34317;51.660;5.824;2023-01-26T09:01:06;102439.56;;;4.70;59.97
48527;BME280;34317;51.660;5.824;2023-01-26T09:03:33;102437.81;;;4.72;60.26
48527;BME280;34317;51.660;5.824;2023-01-26T09:06:02;102441.31;;;4.74;60.15
48527;BME280;34317;51.660;5.824;2023-01-26T09:08:30;102443.09;;;4.75;60.13
48527;BME280;34317;51.660;5.824;2023-01-26T09:10:58;102444.81;;;4.76;60.18
48527;BME280;34317;51.660;5.824;2023-01-26T09:13:25;102444.81;;;4.76;59.88
48527;BME280;34317;51.660;5.824;2023-01-26T09:15:52;102439.59;;;4.78;60.22
48527;BME280;34317;51.660;5.824;2023-01-26T09:18:19;102448.34;;;4.81;60.05
48527;BME280;34317;51.660;5.824;2023-01-26T09:20:46;102443.97;;;4.82;60.29
48527;BME280;34317;51.660;5.824;2023-01-26T09:23:14;102437.00;;;4.82;60.25
48527;BME280;34317;51.660;5.824;2023-01-26T09:25:43;102443.13;;;4.84;60.07
48527;BME280;34317;51.660;5.824;2023-01-26T09:28:11;102446.63;;;4.86;60.17
48527;BME280;34317;51.660;5.824;2023-01-26T09:30:38;102442.28;;;4.90;60.05
48527;BME280;34317;51.660;5.824;2023-01-26T09:33:05;102445.78;;;4.92;60.22
48527;BME280;34317;51.660;5.824;2023-01-26T09:35:33;102451.94;;;4.96;60.18
48527;BME280;34317;51.660;5.824;2023-01-26T09:38:00;102451.94;;;4.99;60.38
48527;BME280;34317;51.660;5.824;2023-01-26T09:40:34;102448.44;;;5.00;60.37
48527;BME280;34317;51.660;5.824;2023-01-26T09:43:34;102454.56;;;5.00;60.27
48527;BME280;34317;51.660;5.824;2023-01-26T09:48:59;102452.84;;;5.05;60.10
48527;BME280;34317;51.660;5.824;2023-01-26T09:54:05;102453.72;;;5.09;60.07
48527;BME280;34317;51.660;5.824;2023-01-26T09:56:38;102458.09;;;5.10;60.36
48527;BME280;34317;51.660;5.824;2023-01-26T10:02:02;102452.00;;;5.11;60.16
48527;BME280;34317;51.660;5.824;2023-01-26T10:04:39;102452.00;;;5.14;60.51
48527;BME280;34317;51.660;5.824;2023-01-26T10:07:11;102445.88;;;5.17;60.34
48527;BME280;34317;51.660;5.824;2023-01-26T10:09:48;102448.50;;;5.21;60.36
48527;BME280;34317;51.660;5.824;2023-01-26T10:12:31;102448.50;;;5.21;60.42
48527;BME280;34317;51.660;5.824;2023-01-26T10:15:04;102446.75;;;5.23;60.18
48527;BME280;34317;51.660;5.824;2023-01-26T10:17:37;102446.78;;;5.26;60.25
48527;BME280;34317;51.660;5.824;2023-01-26T10:22:44;102432.78;;;5.28;60.34
48527;BME280;34317;51.660;5.824;2023-01-26T10:25:27;102434.53;;;5.29;60.15
48527;BME280;34317;51.660;5.824;2023-01-26T10:27:55;102431.91;;;5.30;60.53
48527;BME280;34317;51.660;5.824;2023-01-26T10:30:23;102433.66;;;5.33;60.26
48527;BME280;34317;51.660;5.824;2023-01-26T10:32:51;102434.53;;;5.35;60.47
48527;BME280;34317;51.660;5.824;2023-01-26T10:35:21;102443.28;;;5.37;60.22
48527;BME280;34317;51.660;5.824;2023-01-26T10:37:49;102439.81;;;5.38;60.56
48527;BME280;34317;51.660;5.824;2023-01-26T10:40:19;102445.06;;;5.41;60.51
48527;BME280;34317;51.660;5.824;2023-01-26T10:42:55;102439.81;;;5.41;60.32
48527;BME280;34317;51.660;5.824;2023-01-26T10:45:29;102449.44;;;5.42;60.37
48527;BME280;34317;51.660;5.824;2023-01-26T10:48:13;102447.69;;;5.41;60.29
48527;BME280;34317;51.660;5.824;2023-01-26T10:50:42;102440.69;;;5.41;60.53
48527;BME280;34317;51.660;5.824;2023-01-26T10:53:24;102435.44;;;5.41;60.59
48527;BME280;34317;51.660;5.824;2023-01-26T10:56:04;102436.31;;;5.45;60.61
48527;BME280;34317;51.660;5.824;2023-01-26T10:59:00;102436.31;;;5.48;60.54
48527;BME280;34317;51.660;5.824;2023-01-26T11:01:52;102448.59;;;5.49;60.63
48527;BME280;34317;51.660;5.824;2023-01-26T11:04:20;102441.59;;;5.51;60.66
48527;BME280;34317;51.660;5.824;2023-01-26T11:06:48;102439.81;;;5.53;60.78
48527;BME280;34317;51.660;5.824;2023-01-26T11:09:25;102443.34;;;5.55;60.47
48527;BME280;34317;51.660;5.824;2023-01-26T11:12:03;102436.31;;;5.57;61.03
48527;BME280;34317;51.660;5.824;2023-01-26T11:14:33;102431.09;;;5.60;60.88
48527;BME280;34317;51.660;5.824;2023-01-26T11:17:15;102431.09;;;5.63;60.98
48527;BME280;34317;51.660;5.824;2023-01-26T11:23:08;102426.72;;;5.73;61.15
48527;BME280;34317;51.660;5.824;2023-01-26T11:25:47;102432.84;;;5.80;61.09
48527;BME280;34317;51.660;5.824;2023-01-26T11:28:42;102429.34;;;5.87;61.33
48527;BME280;34317;51.660;5.824;2023-01-26T11:34:11;102428.50;;;5.96;61.19
48527;BME280;34317;51.660;5.824;2023-01-26T11:36:54;102436.41;;;6.03;61.33
48527;BME280;34317;51.660;5.824;2023-01-26T11:42:14;102432.88;;;6.17;61.31
48527;BME280;34317;51.660;5.824;2023-01-26T11:50:15;102422.31;;;6.38;61.42
48527;BME280;34317;51.660;5.824;2023-01-26T11:52:52;102423.19;;;6.48;61.52
48527;BME280;34317;51.660;5.824;2023-01-26T11:55:30;102422.25;;;6.57;61.95
48527;BME280;34317;51.660;5.824;2023-01-26T12:01:25;102405.53;;;6.72;61.91
48527;BME280;34317;51.660;5.824;2023-01-26T12:03:55;102416.03;;;6.81;61.60
48527;BME280;34317;51.660;5.824;2023-01-26T12:06:36;102402.84;;;6.89;61.81
48527;BME280;34317;51.660;5.824;2023-01-26T12:09:11;102401.94;;;6.96;61.80
48527;BME280;34317;51.660;5.824;2023-01-26T12:12:00;102409.78;;;7.05;61.95
48527;BME280;34317;51.660;5.824;2023-01-26T12:14:41;102409.75;;;7.14;62.17
48527;BME280;34317;51.660;5.824;2023-01-26T12:17:31;102406.19;;;7.21;61.86
48527;BME280;34317;51.660;5.824;2023-01-26T12:22:46;102395.56;;;7.37;62.09
48527;BME280;34317;51.660;5.824;2023-01-26T12:28:20;102391.03;;;7.53;62.17
48527;BME280;34317;51.660;5.824;2023-01-26T12:33:35;102384.78;;;7.68;62.14
48527;BME280;34317;51.660;5.824;2023-01-26T12:42:00;102374.06;;;7.89;62.50
48527;BME280;34317;51.660;5.824;2023-01-26T12:44:53;102369.56;;;7.97;62.52
48527;BME280;34317;51.660;5.824;2023-01-26T12:47:31;102366.88;;;8.04;62.19
48527;BME280;34317;51.660;5.824;2023-01-26T12:50:44;102365.03;;;8.12;62.09
48527;BME280;34317;51.660;5.824;2023-01-26T12:55:25;102359.53;;;8.30;62.50
48527;BME280;34317;51.660;5.824;2023-01-26T12:58:01;102350.66;;;8.37;62.70
48527;BME280;34317;51.660;5.824;2023-01-26T13:00:31;102346.22;;;8.46;62.37
48527;BME280;34317;51.660;5.824;2023-01-26T13:03:23;102349.59;;;8.57;62.67
48527;BME280;34317;51.660;5.824;2023-01-26T13:11:04;102339.47;;;8.90;62.50
48527;BME280;34317;51.660;5.824;2023-01-26T13:13:52;102341.09;;;9.00;62.68
48527;BME280;34317;51.660;5.824;2023-01-26T13:21:40;102329.16;;;9.32;62.78
48527;BME280;34317;51.660;5.824;2023-01-26T13:26:48;102329.66;;;9.55;63.00
48527;BME280;34317;51.660;5.824;2023-01-26T13:31:52;102324.06;;;9.74;62.82
48527;BME280;34317;51.660;5.824;2023-01-26T13:37:10;102311.44;;;9.88;62.81
48527;BME280;34317;51.660;5.824;2023-01-26T13:39:43;102321.94;;;9.94;62.59
48527;BME280;34317;51.660;5.824;2023-01-26T13:42:21;102318.25;;;10.02;62.44
48527;BME280;34317;51.660;5.824;2023-01-26T13:44:58;102315.44;;;10.09;62.47
48527;BME280;34317;51.660;5.824;2023-01-26T13:47:35;102311.75;;;10.18;62.49
48527;BME280;34317;51.660;5.824;2023-01-26T13:50:29;102308.94;;;10.27;62.42
48527;BME280;34317;51.660;5.824;2023-01-26T13:52:57;102307.09;;;10.32;62.38
48527;BME280;34317;51.660;5.824;2023-01-26T13:55:27;102305.22;;;10.38;62.03
48527;BME280;34317;51.660;5.824;2023-01-26T13:58:16;102318.38;;;10.42;62.16
48527;BME280;34317;51.660;5.824;2023-01-26T14:01:05;102320.03;;;10.48;61.93
48527;BME280;34317;51.660;5.824;2023-01-26T14:03:37;102317.31;;;10.51;61.81
48527;BME280;34317;51.660;5.824;2023-01-26T14:06:08;102306.72;;;10.51;61.72
48527;BME280;34317;51.660;5.824;2023-01-26T14:08:37;102322.53;;;10.54;61.39
48527;BME280;34317;51.660;5.824;2023-01-26T14:11:15;102318.91;;;10.58;61.71
48527;BME280;34317;51.660;5.824;2023-01-26T14:13:46;102319.69;;;10.63;61.47
48527;BME280;34317;51.660;5.824;2023-01-26T14:16:23;102320.53;;;10.65;61.43
48527;BME280;34317;51.660;5.824;2023-01-26T14:19:12;102318.72;;;10.67;61.19
48527;BME280;34317;51.660;5.824;2023-01-26T14:24:33;102320.34;;;10.75;60.72
48527;BME280;34317;51.660;5.824;2023-01-26T14:27:01;102324.75;;;10.76;60.95
48527;BME280;34317;51.660;5.824;2023-01-26T14:29:36;102326.47;;;10.77;60.79
48527;BME280;34317;51.660;5.824;2023-01-26T14:32:04;102329.13;;;10.77;60.71
48527;BME280;34317;51.660;5.824;2023-01-26T14:34:50;102332.59;;;10.79;60.70
48527;BME280;34317;51.660;5.824;2023-01-26T14:37:18;102326.41;;;10.80;60.55
48527;BME280;34317;51.660;5.824;2023-01-26T14:39:45;102327.31;;;10.79;60.40